Time;durP1;ratioP1;P1;durP2;ratioP2;P2;SDS_P1;SDS_P2;PMS_P1;PMS_P2;Temp;Humidity;BMP_temperature;BMP_pressure;BME280_temperature;BME280_humidity;BME280_pressure;Samples;Min_cycle;Max_cycle;Signal;HPM_P1;HPM_P2
2022/07/24 00:02:45;;;;;;;;;;;22.10;39.80;;;19.87;44.44;101549.34;12260414;19;20333;-85
2022/07/24 00:06:47;;;;;;;;;;;22.40;40.00;;;19.86;44.05;101560.91;12255747;19;19923;-85
2022/07/24 00:10:49;;;;;;;;;;;22.20;40.00;;;19.80;44.16;101560.56;12259391;19;20310;-85
2022/07/24 00:14:50;;;;;;;;;;;21.90;40.00;;;19.62;44.53;101529.25;12256330;19;19930;-85
2022/07/24 00:18:52;;;;;;;;;;;22.00;40.20;;;19.87;44.11;101586.47;12260345;19;19919;-85
2022/07/24 00:22:53;;;;;;;;;;;22.10;40.20;;;19.68;44.53;101567.69;12259338;19;19915;-85
2022/07/24 00:26:55;;;;;;;;;;;21.70;40.20;;;19.69;44.41;101574.69;12261543;19;19932;-85
2022/07/24 00:30:57;;;;;;;;;;;21.70;40.20;;;19.52;44.69;101557.44;12260018;19;19941;-85
2022/07/24 00:34:58;;;;;;;;;;;21.70;40.30;;;19.48;44.49;101561.31;12259959;19;19930;-85
2022/07/24 00:39:00;;;;;;;;;;;21.60;40.30;;;19.52;44.34;101591.03;12262411;19;19967;-85
2022/07/24 00:43:02;;;;;;;;;;;21.60;40.40;;;19.39;44.63;101565.53;12260180;19;19919;-85
2022/07/24 00:47:04;;;;;;;;;;;21.60;40.40;;;19.42;44.76;101586.47;12256131;19;19947;-86
2022/07/24 00:51:05;;;;;;;;;;;21.60;40.50;;;19.27;44.77;101573.59;12260626;19;19926;-86
2022/07/24 00:55:07;;;;;;;;;;;21.50;40.50;;;19.51;44.58;101613.22;12255251;19;19933;-85
2022/07/24 00:59:08;;;;;;;;;;;21.50;40.50;;;19.50;44.48;101622.13;12258044;19;19930;-85
2022/07/24 01:03:10;;;;;;;;;;;21.40;40.50;;;19.46;44.48;101627.66;12257883;19;19930;-85
2022/07/24 01:07:12;;;;;;;;;;;21.50;40.50;;;19.43;44.71;101637.66;12253515;19;19911;-85
2022/07/24 01:11:14;;;;;;;;;;;21.30;40.50;;;19.36;44.74;101634.66;12257324;19;19952;-86
2022/07/24 01:15:16;;;;;;;;;;;21.30;40.50;;;19.22;44.65;101629.56;12255231;19;20256;-86
2022/07/24 01:19:17;;;;;;;;;;;21.50;40.50;;;19.20;44.48;101642.09;12258745;19;19930;-86
2022/07/24 01:23:19;;;;;;;;;;;21.20;40.40;;;19.11;44.52;101635.69;12253891;19;19918;-86
2022/07/24 01:27:22;;;;;;;;;;;21.10;40.40;;;18.90;44.70;101613.50;12253084;19;19943;-85
2022/07/24 01:31:23;;;;;;;;;;;21.10;40.40;;;18.81;44.63;101620.34;12255283;19;19923;-85
2022/07/24 01:35:25;;;;;;;;;;;21.10;40.50;;;18.15;44.81;101519.47;12252311;19;20448;-85
2022/07/24 01:39:26;;;;;;;;;;;20.90;40.50;;;18.78;44.63;101629.34;12255932;19;19918;-86
2022/07/24 01:43:28;;;;;;;;;;;20.80;40.50;;;18.67;44.95;101625.81;12253076;19;19914;-85
2022/07/24 01:47:29;;;;;;;;;;;20.70;40.50;;;18.22;44.64;101562.97;12250407;19;19914;-85
2022/07/24 01:51:31;;;;;;;;;;;20.90;40.60;;;18.05;44.82;101558.94;12252476;19;19911;-85
2022/07/24 01:55:33;;;;;;;;;;;20.50;40.50;;;18.45;44.99;101639.78;12243029;19;19915;-85
2022/07/24 01:59:34;;;;;;;;;;;20.50;40.70;;;18.30;45.19;101623.25;12251839;19;20306;-85
2022/07/24 02:03:36;;;;;;;;;;;20.40;40.70;;;18.36;45.14;101628.06;12253113;19;19919;-85
2022/07/24 02:07:38;;;;;;;;;;;20.40;40.80;;;18.26;45.08;101625.28;12248980;19;19915;-85
2022/07/24 02:11:39;;;;;;;;;;;20.40;40.80;;;18.28;45.18;101638.38;12251486;19;19919;-85
2022/07/24 02:15:41;;;;;;;;;;;20.30;40.70;;;18.11;45.02;101635.16;12250044;19;19911;-85
2022/07/24 02:19:43;;;;;;;;;;;20.30;40.80;;;18.09;45.02;101641.50;12249607;19;20373;-85
2022/07/24 02:23:44;;;;;;;;;;;20.20;40.70;;;18.04;45.05;101649.78;12251277;19;19947;-85
2022/07/24 02:27:45;;;;;;;;;;;20.00;40.60;;;17.65;45.34;101614.63;12247488;19;20365;-85
2022/07/24 02:31:47;;;;;;;;;;;19.90;40.60;;;17.37;45.33;101584.06;12251217;19;19907;-85
2022/07/24 02:35:49;;;;;;;;;;;19.90;40.80;;;17.17;45.26;101566.09;12249148;19;19922;-86
2022/07/24 02:39:50;;;;;;;;;;;19.80;40.80;;;17.24;45.45;101604.34;12250650;19;19923;-85
2022/07/24 02:43:51;;;;;;;;;;;19.70;40.80;;;17.48;45.48;101641.41;12250381;19;19907;-85
2022/07/24 02:47:56;;;;;;;;;;;19.60;40.90;;;17.41;45.42;101637.47;12244857;19;19922;-86
2022/07/24 02:51:57;;;;;;;;;;;19.50;40.90;;;17.32;45.58;101623.13;12250453;19;19911;-86
2022/07/24 02:55:59;;;;;;;;;;;19.50;41.00;;;17.35;45.52;101624.72;12256540;19;20329;-85
2022/07/24 03:00:00;;;;;;;;;;;19.50;41.10;;;17.14;45.38;101606.75;12261123;19;20330;-85
2022/07/24 03:04:02;;;;;;;;;;;19.60;41.10;;;17.11;45.37;101606.97;12262221;19;19939;-85
2022/07/24 03:08:04;;;;;;;;;;;19.40;41.10;;;17.13;45.58;101634.13;12255578;19;20567;-85
2022/07/24 03:12:06;;;;;;;;;;;19.30;41.10;;;17.06;45.59;101638.09;12262017;19;19907;-85
2022/07/24 03:16:07;;;;;;;;;;;19.30;41.10;;;17.10;45.33;101655.44;12255870;19;19935;-85
2022/07/24 03:20:09;;;;;;;;;;;19.20;41.20;;;16.94;45.64;101649.50;12261606;19;19911;-85
2022/07/24 03:24:12;;;;;;;;;;;19.10;41.10;;;16.96;45.68;101660.81;12259844;19;19910;-85
2022/07/24 03:28:13;;;;;;;;;;;19.10;41.20;;;16.95;45.73;101670.50;12255392;19;20333;-85
2022/07/24 03:32:14;;;;;;;;;;;19.20;41.60;;;16.83;45.80;101671.34;12260352;19;19923;-85
2022/07/24 03:36:16;;;;;;;;;;;18.90;41.20;;;16.69;45.93;101661.66;12255814;19;19915;-85
2022/07/24 03:40:17;;;;;;;;;;;18.90;41.30;;;16.69;45.84;101666.06;12258014;19;19964;-85
2022/07/24 03:44:19;;;;;;;;;;;19.20;41.50;;;16.68;46.12;101670.50;12259538;19;20310;-85
2022/07/24 03:48:20;;;;;;;;;;;18.80;41.50;;;16.58;45.89;101656.25;12257949;19;19934;-85
2022/07/24 03:52:22;;;;;;;;;;;18.70;41.50;;;16.57;46.23;101660.66;12260102;19;19932;-85
2022/07/24 03:56:24;;;;;;;;;;;18.70;41.50;;;16.58;46.09;101667.66;12257649;19;19924;-85
2022/07/24 04:00:25;;;;;;;;;;;18.70;41.60;;;16.55;45.84;101653.78;12260021;19;19944;-85
2022/07/24 04:04:27;;;;;;;;;;;18.90;41.80;;;16.54;46.13;101668.78;12260220;19;19954;-85
2022/07/24 04:08:28;;;;;;;;;;;18.80;41.80;;;16.64;46.09;101678.75;12254975;19;19970;-85
2022/07/24 04:12:30;;;;;;;;;;;18.70;41.80;;;16.61;46.23;101677.16;12260119;19;19986;-85
2022/07/24 04:16:32;;;;;;;;;;;18.80;41.90;;;16.52;46.20;101659.28;12255605;19;19911;-85
2022/07/24 04:20:33;;;;;;;;;;;18.70;41.80;;;16.61;46.24;101666.59;12258268;19;19930;-86
2022/07/24 04:24:35;;;;;;;;;;;18.70;41.90;;;16.62;46.25;101668.28;12258322;19;19922;-85
2022/07/24 04:28:36;;;;;;;;;;;18.70;42.00;;;16.74;46.24;101688.59;12257680;19;19918;-86
2022/07/24 04:32:38;;;;;;;;;;;18.70;41.90;;;16.64;46.38;101674.31;12257047;19;19914;-85
2022/07/24 04:36:39;;;;;;;;;;;18.80;42.00;;;16.71;46.35;101694.03;12251671;19;19939;-85
2022/07/24 04:40:41;;;;;;;;;;;18.70;42.00;;;16.73;46.32;101699.22;12257181;19;19939;-85
2022/07/24 04:44:43;;;;;;;;;;;18.70;42.00;;;16.56;46.25;101685.34;12256478;19;20344;-85
2022/07/24 04:48:44;;;;;;;;;;;18.80;42.00;;;16.57;46.42;101692.31;12255917;19;19946;-86
2022/07/24 04:52:46;;;;;;;;;;;18.70;42.10;;;16.55;46.30;101682.81;12256959;19;19911;-85
2022/07/24 04:56:48;;;;;;;;;;;19.00;42.10;;;16.60;46.43;101691.25;12252518;19;19935;-86
2022/07/24 05:00:49;;;;;;;;;;;18.60;42.20;;;16.50;46.66;101679.63;12257099;19;20263;-85
2022/07/24 05:04:51;;;;;;;;;;;19.10;42.50;;;16.74;46.47;101714.97;12256623;19;19921;-86
2022/07/24 05:08:53;;;;;;;;;;;18.70;42.40;;;16.77;46.47;101709.53;12256521;19;19919;-85
2022/07/24 05:12:54;;;;;;;;;;;18.80;42.60;;;16.88;46.53;101694.78;12256070;19;19915;-85
2022/07/24 05:16:56;;;;;;;;;;;18.80;42.70;;;16.69;46.51;101621.22;12250498;19;19947;-86
2022/07/24 05:20:57;;;;;;;;;;;18.90;42.80;;;17.22;46.65;101693.34;12256421;19;19918;-85
2022/07/24 05:24:59;;;;;;;;;;;19.00;42.70;;;17.35;46.61;101686.28;12252891;19;19915;-86
2022/07/24 05:29:02;;;;;;;;;;;19.20;42.80;;;17.50;46.79;101692.31;12254826;19;19959;-86
2022/07/24 05:33:03;;;;;;;;;;;19.30;42.80;;;17.59;46.67;101690.84;12255217;19;19903;-85
2022/07/24 05:37:05;;;;;;;;;;;19.50;42.70;;;17.78;46.71;101711.53;12252023;19;19940;-86
2022/07/24 05:41:07;;;;;;;;;;;19.60;42.70;;;17.91;46.47;101691.25;12254079;19;19919;-85
2022/07/24 05:45:09;;;;;;;;;;;19.80;42.70;;;18.08;46.64;101692.69;12255499;19;19921;-86
2022/07/24 05:49:10;;;;;;;;;;;19.90;42.70;;;18.28;46.92;101705.34;12253634;19;20254;-86
2022/07/24 05:53:12;;;;;;;;;;;20.00;42.70;;;18.13;46.54;101633.25;12253869;19;19911;-85
2022/07/24 05:57:13;;;;;;;;;;;20.50;42.90;;;18.72;46.74;101693.28;12248007;19;19922;-84
2022/07/24 06:01:15;;;;;;;;;;;20.40;42.70;;;18.37;46.46;101595.38;12253646;19;19911;-85
2022/07/24 06:05:16;;;;;;;;;;;20.60;42.80;;;19.24;46.78;101699.97;12251983;19;19956;-86
2022/07/24 06:09:18;;;;;;;;;;;20.80;42.80;;;19.45;46.73;101696.66;12252376;19;19919;-86
2022/07/24 06:13:19;;;;;;;;;;;21.00;42.70;;;19.73;46.64;101699.84;12250450;19;19923;-86
2022/07/24 06:17:21;;;;;;;;;;;21.30;42.70;;;19.89;46.51;101697.66;12250231;19;19941;-87
2022/07/24 06:21:22;;;;;;;;;;;21.60;42.60;;;20.11;46.51;101702.09;12250601;19;19943;-86
2022/07/24 06:25:24;;;;;;;;;;;22.00;42.50;;;20.22;46.13;101699.44;12249884;19;20369;-86
2022/07/24 06:29:25;;;;;;;;;;;21.90;42.20;;;20.41;46.44;101721.81;12248454;19;20372;-86
2022/07/24 06:33:27;;;;;;;;;;;22.10;42.10;;;20.46;46.48;101703.72;12250936;19;20266;-85
2022/07/24 06:37:28;;;;;;;;;;;22.20;42.00;;;20.42;46.41;101686.38;12247427;19;19922;-86
2022/07/24 06:41:30;;;;;;;;;;;22.50;41.90;;;20.53;46.50;101691.66;12248789;19;20341;-86
2022/07/24 06:45:32;;;;;;;;;;;22.50;41.80;;;20.62;46.31;101698.88;12245565;19;19911;-85
2022/07/24 06:49:33;;;;;;;;;;;22.80;41.80;;;20.69;46.12;101692.09;12245846;19;19914;-85
2022/07/24 06:53:36;;;;;;;;;;;22.60;41.60;;;20.78;46.21;101690.50;12247880;19;19926;-86
2022/07/24 06:57:37;;;;;;;;;;;22.70;41.70;;;20.74;46.06;101668.66;12245435;19;19914;-85
2022/07/24 07:01:39;;;;;;;;;;;22.80;41.70;;;20.98;45.99;101700.31;12249409;19;19914;-86
2022/07/24 07:05:40;;;;;;;;;;;22.90;41.60;;;21.03;46.16;101691.09;12248369;19;19923;-86
2022/07/24 07:09:43;;;;;;;;;;;22.90;41.50;;;20.85;45.71;101657.16;12252253;19;19926;-86
2022/07/24 07:13:44;;;;;;;;;;;23.00;41.40;;;21.27;46.09;101718.22;12248114;19;19926;-85
2022/07/24 07:17:45;;;;;;;;;;;23.10;41.40;;;21.29;45.56;101708.31;12249646;19;19918;-86
2022/07/24 07:21:47;;;;;;;;;;;23.20;41.40;;;21.45;45.46;101707.91;12250191;19;19919;-85
2022/07/24 07:25:49;;;;;;;;;;;23.30;41.30;;;21.54;46.09;101700.94;12249258;19;19914;-87
2022/07/24 07:29:51;;;;;;;;;;;23.30;41.20;;;21.71;45.70;101710.97;12250359;19;19922;-85
2022/07/24 07:33:52;;;;;;;;;;;23.50;41.30;;;21.78;45.97;101697.97;12249320;19;19925;-86
2022/07/24 07:37:54;;;;;;;;;;;23.60;41.10;;;21.61;45.81;101641.78;12240771;19;19922;-86
2022/07/24 07:41:56;;;;;;;;;;;23.90;41.20;;;22.19;45.65;101707.66;12260204;19;19911;-86
2022/07/24 07:45:57;;;;;;;;;;;24.00;41.20;;;22.34;45.90;101683.31;12258589;19;19986;-86
2022/07/24 07:49:58;;;;;;;;;;;24.00;41.20;;;22.47;45.94;101687.41;12260364;19;19949;-87
2022/07/24 07:54:01;;;;;;;;;;;24.40;41.20;;;22.90;45.70;101711.91;12258126;19;19923;-85
2022/07/24 07:58:03;;;;;;;;;;;24.40;41.10;;;23.07;45.43;101691.75;12254744;19;19946;-85
2022/07/24 08:02:04;;;;;;;;;;;24.70;41.10;;;23.22;45.29;101689.47;12258701;19;19903;-86
2022/07/24 08:06:06;;;;;;;;;;;24.90;40.60;;;23.30;45.16;101686.94;12257296;19;19939;-85
2022/07/24 08:10:07;;;;;;;;;;;25.10;40.50;;;23.15;45.19;101647.41;12258445;19;19925;-85
2022/07/24 08:14:09;;;;;;;;;;;25.20;40.00;;;23.50;45.18;101683.22;12253018;19;19927;-87
2022/07/24 08:18:10;;;;;;;;;;;25.30;40.30;;;23.68;45.15;101695.78;12252880;19;20426;-85
2022/07/24 08:22:12;;;;;;;;;;;25.40;40.10;;;23.85;45.16;101695.06;12257653;19;20607;-85
2022/07/24 08:26:14;;;;;;;;;;;25.60;40.20;;;24.02;45.00;101677.41;12255072;19;19919;-87
2022/07/24 08:30:16;;;;;;;;;;;25.70;40.20;;;24.25;44.72;101681.34;12257274;19;19974;-87
2022/07/24 08:34:18;;;;;;;;;;;26.00;40.20;;;24.51;44.70;101688.63;12255832;19;19930;-86
2022/07/24 08:38:19;;;;;;;;;;;26.10;40.10;;;24.64;44.68;101686.41;12252638;19;19958;-87
2022/07/24 08:42:21;;;;;;;;;;;26.30;39.80;;;24.49;45.01;101653.22;12256039;19;19914;-86
2022/07/24 08:46:23;;;;;;;;;;;26.40;39.70;;;24.93;44.68;101688.00;12253467;19;19943;-86
2022/07/24 08:50:25;;;;;;;;;;;26.80;40.30;;;25.08;44.32;101683.75;12255025;19;19911;-86
2022/07/24 08:54:27;;;;;;;;;;;26.70;39.50;;;24.90;44.27;101645.56;12260526;19;19964;-88
2022/07/24 08:58:28;;;;;;;;;;;27.00;39.60;;;25.19;44.33;101661.28;12255516;19;19915;-87
2022/07/24 09:02:30;;;;;;;;;;;27.00;39.80;;;25.47;44.39;101685.22;12258706;19;19915;-87
2022/07/24 09:06:32;;;;;;;;;;;27.10;39.50;;;25.35;43.91;101645.34;12256012;19;19911;-87
2022/07/24 09:10:33;;;;;;;;;;;27.30;39.30;;;25.59;44.54;101652.66;12259020;19;19918;-87
2022/07/24 09:14:38;;;;;;;;;;;27.40;39.50;;;25.93;43.91;101685.78;12258708;19;20048;-85
2022/07/24 09:18:46;;;;;;;;;;;27.50;39.20;;;25.93;43.94;101654.50;12256812;19;19926;-86
2022/07/24 09:22:48;;;;;;;;;;;27.70;39.50;;;26.21;43.44;101672.97;12249937;19;19921;-86
2022/07/24 09:26:52;;;;;;;;;;;27.80;39.40;;;25.87;43.62;101601.63;12251645;19;19922;-87
2022/07/24 09:31:00;;;;;;;;;;;28.00;39.30;;;26.32;43.45;101640.50;12255068;19;19957;-87
2022/07/24 09:35:02;;;;;;;;;;;28.10;39.20;;;26.64;43.72;101652.28;12252101;19;19978;-87
2022/07/24 09:39:04;;;;;;;;;;;28.30;39.40;;;26.49;43.63;101601.16;12250320;19;19927;-86
2022/07/24 09:48:06;;;;;;;;;;;28.60;39.00;;;26.55;42.95;101570.22;12252502;19;19919;-87
2022/07/24 09:52:11;;;;;;;;;;;28.80;39.40;;;26.87;42.84;101615.75;12253654;19;19936;-91
2022/07/24 09:56:17;;;;;;;;;;;28.90;38.90;;;27.33;42.89;101677.69;12250229;19;19942;-90
2022/07/24 10:00:19;;;;;;;;;;;29.00;38.90;;;27.17;42.98;101640.19;12251276;19;20357;-90
2022/07/24 10:04:22;;;;;;;;;;;29.10;39.00;;;27.47;42.63;101664.56;12242437;19;19915;-91
2022/07/24 10:08:24;;;;;;;;;;;29.20;38.90;;;27.27;42.98;101607.78;12248169;19;20023;-90
2022/07/24 10:12:30;;;;;;;;;;;29.30;38.80;;;27.40;42.40;101613.44;12249812;19;19947;-89
2022/07/24 10:16:31;;;;;;;;;;;29.40;38.90;;;27.57;42.49;101607.00;12249262;19;19923;-89
2022/07/24 10:20:41;;;;;;;;;;;29.50;38.20;;;27.72;42.49;101625.03;12250003;19;19937;-92
2022/07/24 10:25:05;;;;;;;;;;;29.60;38.40;;;27.82;42.43;101614.97;12252574;19;19918;-91
2022/07/24 10:29:10;;;;;;;;;;;29.80;38.40;;;28.15;42.19;101657.72;12252412;19;19915;-90
2022/07/24 10:33:11;;;;;;;;;;;29.90;38.30;;;28.11;41.94;101648.34;12250725;19;19922;-90
2022/07/24 10:37:13;;;;;;;;;;;29.80;37.40;;;28.28;41.90;101651.78;12251948;19;20268;-88
2022/07/24 10:41:21;;;;;;;;;;;30.00;37.80;;;28.22;41.68;101637.22;12252157;19;19943;-89
2022/07/24 10:45:22;;;;;;;;;;;30.00;38.30;;;28.17;41.71;101624.31;12253116;19;19932;-87
2022/07/24 10:49:49;;;;;;;;;;;30.00;38.10;;;28.54;41.43;101652.25;12251504;19;20318;-92
2022/07/24 10:53:53;;;;;;;;;;;30.10;37.40;;;28.62;41.37;101635.22;12250758;19;19915;-90
2022/07/24 10:57:58;;;;;;;;;;;30.20;38.00;;;28.76;41.70;101649.72;12247426;19;20393;-88
2022/07/24 11:02:27;;;;;;;;;;;30.30;37.40;;;28.73;40.98;101639.34;12239446;19;19923;-89
2022/07/24 11:06:50;;;;;;;;;;;30.30;37.80;;;28.54;40.95;101620.00;12245137;19;19933;-89
2022/07/24 11:10:54;;;;;;;;;;;30.30;37.70;;;28.56;40.99;101617.97;12248630;19;20334;-89
2022/07/24 11:19:27;;;;;;;;;;;30.40;37.10;;;28.90;41.04;101628.25;12260787;19;19967;-90
2022/07/24 11:23:28;;;;;;;;;;;30.50;37.10;;;28.93;40.83;101620.84;12257155;19;19930;-89
2022/07/24 11:27:40;;;;;;;;;;;30.60;37.30;;;28.85;40.53;101589.47;12257055;19;20327;-89
2022/07/24 11:31:43;;;;;;;;;;;30.70;37.70;;;29.19;40.60;101625.78;12255337;19;19936;-90
2022/07/24 11:35:45;;;;;;;;;;;30.70;37.50;;;28.98;40.20;101578.09;12252563;19;20038;-88
2022/07/24 11:39:47;;;;;;;;;;;30.80;37.20;;;29.37;40.28;101610.09;12255095;19;19919;-88
2022/07/24 11:43:53;;;;;;;;;;;30.90;37.30;;;29.26;40.18;101600.63;12252747;19;20267;-89
2022/07/24 11:47:55;;;;;;;;;;;31.00;35.60;;;29.22;39.96;101601.19;12256655;19;20279;-89
2022/07/24 11:51:56;;;;;;;;;;;31.00;36.40;;;29.23;39.92;101600.19;12254448;19;20009;-89
2022/07/24 11:56:04;;;;;;;;;;;30.90;36.90;;;29.28;39.70;101589.69;12253886;19;19911;-89
2022/07/24 12:00:10;;;;;;;;;;;31.00;36.60;;;29.39;39.71;101583.84;12255784;19;19934;-90
2022/07/24 12:04:18;;;;;;;;;;;31.00;36.50;;;29.12;39.61;101539.63;12247356;19;19928;-89
2022/07/24 12:08:23;;;;;;;;;;;31.10;36.20;;;29.52;39.81;101591.25;12253494;19;19923;-89
2022/07/24 12:12:26;;;;;;;;;;;31.10;36.40;;;29.59;39.72;101594.00;12250725;19;19918;-89
2022/07/24 12:16:31;;;;;;;;;;;31.10;36.00;;;29.26;39.69;101529.84;12248430;19;20274;-90
2022/07/24 12:20:39;;;;;;;;;;;31.20;36.80;;;29.74;39.61;101590.28;12253159;19;19922;-90
2022/07/24 12:24:44;;;;;;;;;;;31.30;36.70;;;29.17;39.56;101496.03;12254533;19;19941;-91
2022/07/24 12:28:46;;;;;;;;;;;31.40;35.60;;;29.31;39.18;101516.66;12251584;19;19922;-90
2022/07/24 12:33:03;;;;;;;;;;;31.40;36.00;;;29.58;39.36;101557.34;12251049;19;19962;-90
2022/07/24 12:37:18;;;;;;;;;;;31.30;34.80;;;29.37;39.09;101517.78;12246298;19;19923;-89
2022/07/24 12:41:22;;;;;;;;;;;31.30;36.10;;;29.45;39.15;101505.03;12248031;19;19986;-89
2022/07/24 12:45:23;;;;;;;;;;;31.30;36.40;;;29.57;39.00;101502.69;12247608;19;19919;-90
2022/07/24 12:49:38;;;;;;;;;;;31.40;36.20;;;29.87;38.66;101524.97;12248161;19;19924;-90
2022/07/24 12:53:41;;;;;;;;;;;31.40;36.20;;;29.97;38.78;101535.41;12245710;19;19922;-90
2022/07/24 12:57:43;;;;;;;;;;;31.60;35.50;;;29.89;38.76;101505.91;12249731;19;19978;-90
2022/07/24 13:01:51;;;;;;;;;;;31.60;36.10;;;29.53;38.75;101423.31;12248268;19;20542;-90
2022/07/24 13:05:56;;;;;;;;;;;31.80;35.90;;;29.95;38.42;101467.44;12248494;19;19915;-89
2022/07/24 13:09:58;;;;;;;;;;;31.80;36.40;;;30.26;38.28;101507.50;12249864;19;19911;-90
2022/07/24 13:13:59;;;;;;;;;;;31.90;36.20;;;30.29;38.20;101506.28;12248133;19;19978;-89
2022/07/24 13:18:01;;;;;;;;;;;32.00;36.10;;;30.55;38.53;101527.22;12248771;19;19941;-89
2022/07/24 13:22:03;;;;;;;;;;;32.10;36.40;;;30.30;38.17;101484.53;12251168;19;20318;-89
2022/07/24 13:26:04;;;;;;;;;;;32.10;35.80;;;30.34;38.02;101474.19;12249822;19;20226;-90
2022/07/24 13:30:06;;;;;;;;;;;32.00;35.90;;;30.40;37.95;101482.28;12250572;19;20338;-89
2022/07/24 13:34:08;;;;;;;;;;;32.20;35.30;;;30.62;37.93;101498.41;12245284;19;19915;-89
2022/07/24 13:38:09;;;;;;;;;;;32.20;35.50;;;30.74;37.78;101515.72;12247575;19;19932;-88
2022/07/24 13:42:11;;;;;;;;;;;32.30;35.40;;;30.71;37.59;101493.72;12248834;19;19925;-91
2022/07/24 13:46:13;;;;;;;;;;;32.30;35.40;;;30.76;37.85;101507.41;12247617;19;19949;-90
2022/07/24 13:50:15;;;;;;;;;;;32.40;35.60;;;30.70;37.55;101470.44;12249240;19;19922;-89
2022/07/24 13:54:16;;;;;;;;;;;32.40;35.70;;;30.90;37.28;101486.78;12242413;19;19922;-90
2022/07/24 13:58:17;;;;;;;;;;;32.40;35.20;;;30.96;37.57;101481.41;12245914;19;19915;-91
2022/07/24 14:02:19;;;;;;;;;;;32.50;35.70;;;31.04;37.01;101489.31;12244948;19;19915;-90
2022/07/24 14:06:20;;;;;;;;;;;32.50;35.70;;;31.15;37.10;101482.50;12246719;19;19938;-89
2022/07/24 14:10:22;;;;;;;;;;;32.60;35.50;;;30.96;37.00;101442.81;12245399;19;19919;-87
2022/07/24 14:14:24;;;;;;;;;;;32.70;34.70;;;30.93;37.04;101440.50;12245743;19;19922;-88
2022/07/24 14:18:25;;;;;;;;;;;32.70;34.90;;;31.08;37.12;101470.84;12246540;19;20346;-88
2022/07/24 14:22:27;;;;;;;;;;;32.60;34.80;;;30.72;36.91;101392.88;12243955;19;20323;-88
2022/07/24 14:26:32;;;;;;;;;;;32.70;34.90;;;31.08;37.08;101446.56;12240598;19;21298;-88
2022/07/24 14:30:34;;;;;;;;;;;32.70;35.00;;;30.95;36.62;101408.78;12245428;19;19928;-89
2022/07/24 14:34:36;;;;;;;;;;;32.80;35.10;;;30.82;36.91;101387.97;12246563;19;19982;-89
2022/07/24 14:38:37;;;;;;;;;;;32.80;34.30;;;31.16;36.58;101443.69;12243985;19;20315;-88
2022/07/24 14:42:39;;;;;;;;;;;32.80;34.10;;;30.85;36.81;101414.53;12242626;19;19999;-89
2022/07/24 14:46:40;;;;;;;;;;;32.70;34.30;;;30.83;36.29;101405.81;12245297;19;20422;-88
2022/07/24 14:50:42;;;;;;;;;;;32.60;34.40;;;30.98;36.81;101424.56;12243585;19;19974;-88
2022/07/24 14:54:47;;;;;;;;;;;32.60;33.70;;;30.99;36.34;101432.44;12244356;19;19910;-88
2022/07/24 14:58:48;;;;;;;;;;;32.60;33.70;;;30.61;36.59;101359.25;12246053;19;19936;-88
2022/07/24 15:02:50;;;;;;;;;;;32.60;34.50;;;30.53;36.27;101329.75;12243637;19;19982;-88
2022/07/24 15:06:51;;;;;;;;;;;32.60;34.40;;;30.84;36.60;101358.94;12241040;19;20023;-89
2022/07/24 15:10:52;;;;;;;;;;;32.60;34.30;;;30.92;36.08;101349.81;12241635;19;19912;-90
2022/07/24 15:14:54;;;;;;;;;;;32.70;34.00;;;31.03;35.96;101370.81;12242246;19;19929;-90
2022/07/24 15:18:55;;;;;;;;;;;32.80;34.60;;;30.72;36.24;101302.03;12244717;19;20343;-89
2022/07/24 15:22:56;;;;;;;;;;;32.80;34.50;;;30.56;35.93;101281.66;12241973;19;19915;-90
2022/07/24 15:26:58;;;;;;;;;;;32.80;34.20;;;31.11;36.22;101385.97;12241776;19;19937;-89
2022/07/24 15:30:59;;;;;;;;;;;32.80;34.40;;;30.66;36.16;101302.84;12244806;19;19929;-90
2022/07/24 15:35:02;;;;;;;;;;;32.80;34.40;;;30.91;36.02;101338.19;12243928;19;19929;-88
2022/07/24 15:39:05;;;;;;;;;;;32.80;34.20;;;31.08;35.89;101360.22;12244776;19;19925;-88
2022/07/24 15:43:09;;;;;;;;;;;32.80;34.30;;;30.97;35.96;101331.16;12241396;19;19911;-88
2022/07/24 15:47:11;;;;;;;;;;;32.80;34.10;;;30.97;35.56;101314.97;12246710;19;20373;-89
2022/07/24 15:51:13;;;;;;;;;;;32.80;34.20;;;31.17;35.60;101340.13;12243725;19;19926;-89
2022/07/24 15:55:15;;;;;;;;;;;32.80;34.10;;;31.22;35.23;101351.13;12244050;19;20330;-89
2022/07/24 15:59:16;;;;;;;;;;;32.80;33.60;;;31.04;35.35;101310.41;12244570;19;19933;-89
2022/07/24 16:03:17;;;;;;;;;;;32.80;34.30;;;31.00;35.47;101312.69;12252696;19;19923;-89
2022/07/24 16:07:19;;;;;;;;;;;32.80;34.00;;;31.02;35.34;101305.22;12256230;19;19926;-89
2022/07/24 16:11:20;;;;;;;;;;;32.70;33.90;;;31.14;35.31;101315.41;12255649;19;20295;-90
2022/07/24 16:15:22;;;;;;;;;;;32.80;33.70;;;31.05;35.27;101302.09;12252557;19;19931;-89
2022/07/24 16:19:23;;;;;;;;;;;32.80;34.10;;;31.19;35.49;101329.09;12254882;19;19911;-88
2022/07/24 16:23:25;;;;;;;;;;;32.80;34.00;;;31.21;35.21;101330.56;12252432;19;20419;-90
2022/07/24 16:27:29;;;;;;;;;;;32.80;33.70;;;31.18;34.96;101327.44;12255700;19;19932;-88
2022/07/24 16:31:31;;;;;;;;;;;32.80;33.80;;;31.29;35.21;101338.44;12254022;19;20443;-88
2022/07/24 16:35:32;;;;;;;;;;;32.80;33.90;;;31.30;35.02;101321.22;12252220;19;19927;-89
2022/07/24 16:39:33;;;;;;;;;;;32.80;33.90;;;31.21;35.22;101306.25;12254213;19;19923;-89
2022/07/24 16:43:35;;;;;;;;;;;32.80;33.80;;;31.24;35.31;101311.25;12251074;19;20317;-88
2022/07/24 16:47:37;;;;;;;;;;;32.80;33.80;;;31.24;35.30;101296.91;12253625;19;19915;-88
2022/07/24 16:51:41;;;;;;;;;;;32.80;33.70;;;31.33;35.12;101311.06;12252178;19;19929;-89
2022/07/24 16:55:43;;;;;;;;;;;32.60;33.70;;;31.14;35.13;101291.13;12251179;19;19959;-89
2022/07/24 16:59:44;;;;;;;;;;;32.80;33.70;;;30.90;35.17;101254.78;12254351;19;19922;-90
2022/07/24 17:03:47;;;;;;;;;;;32.80;34.10;;;31.11;35.06;101297.78;12248682;19;19919;-88
2022/07/24 17:07:48;;;;;;;;;;;32.70;33.60;;;30.99;34.96;101284.03;12252158;19;19919;-89
2022/07/24 17:11:54;;;;;;;;;;;32.70;33.70;;;30.89;34.90;101290.88;12249437;19;19915;-89
2022/07/24 17:15:55;;;;;;;;;;;32.60;33.50;;;30.91;34.74;101289.63;12248350;19;19911;-90
2022/07/24 17:19:57;;;;;;;;;;;32.50;33.70;;;30.75;34.52;101274.63;12251621;19;19932;-90
2022/07/24 17:23:58;;;;;;;;;;;32.50;33.50;;;30.69;34.86;101261.97;12250603;19;19911;-90
2022/07/24 17:28:01;;;;;;;;;;;32.50;33.50;;;30.67;34.75;101265.91;12253356;19;19971;-91
2022/07/24 17:32:03;;;;;;;;;;;32.40;33.40;;;30.72;34.68;101283.16;12251787;19;19919;-90
2022/07/24 17:36:06;;;;;;;;;;;32.40;33.50;;;30.83;34.69;101300.63;12251612;19;19924;-88
2022/07/24 17:40:07;;;;;;;;;;;32.30;33.50;;;30.77;34.75;101288.75;12249516;19;19922;-88
2022/07/24 17:44:09;;;;;;;;;;;32.30;33.50;;;30.69;34.55;101286.25;12250646;19;20297;-88
2022/07/24 17:48:10;;;;;;;;;;;32.30;33.50;;;30.46;34.48;101253.41;12250266;19;20395;-89
2022/07/24 17:52:12;;;;;;;;;;;32.30;33.60;;;30.31;34.43;101253.59;12248687;19;19926;-88
2022/07/24 17:56:14;;;;;;;;;;;32.20;33.50;;;30.14;34.64;101229.66;12250877;19;20326;-88
2022/07/24 18:00:16;;;;;;;;;;;32.20;33.80;;;30.41;34.60;101279.13;12254236;19;20359;-88
2022/07/24 18:04:17;;;;;;;;;;;32.10;33.60;;;30.28;34.43;101276.38;12245304;19;19925;-88
2022/07/24 18:08:18;;;;;;;;;;;32.00;33.80;;;30.21;34.61;101270.09;12251266;19;20251;-90
2022/07/24 18:12:20;;;;;;;;;;;31.90;33.90;;;29.58;34.77;101185.88;12251318;19;19964;-88
2022/07/24 18:16:21;;;;;;;;;;;31.80;34.00;;;29.92;34.75;101261.28;12249896;19;19926;-89
2022/07/24 18:20:24;;;;;;;;;;;31.70;34.00;;;29.51;34.96;101216.25;12250998;19;20310;-89